This is the latest recevied weather packets stored in our database for station/object OK1FRN-6. If no packets are shown the sender has not sent any weather packets the latest 1 day(s).
| Time | Temp. | Humidity | Pressure | Rain* | Wind** | Luminosity | Snow |
|---|---|---|---|---|---|---|---|
| 1777970373 | 25.56° C | 47% | 1008.9 hPa | - | 0.45 m/s, 37° | - | - |
| 1777969759 | 25.56° C | 46% | 1008.9 hPa | - | 0.89 m/s, 86° | - | - |
| 1777969144 | 25.56° C | 47% | 1008.9 hPa | - | 0.45 m/s, 344° | - | - |
| 1777967609 | 24.44° C | 47% | 1008.9 hPa | - | 0.89 m/s, 113° | - | - |
| 1777967302 | 25° C | 47% | 1009 hPa | - | 0.45 m/s, 90° | - | - |
| 1777966995 | 24.44° C | 48% | 1009 hPa | - | 0.45 m/s, 25° | - | - |
| 1777966074 | 23.33° C | 50% | 1009.1 hPa | - | 0.45 m/s, 63° | - | - |
| 1777965767 | 23.33° C | 51% | 1009.1 hPa | - | 0.45 m/s, 15° | - | - |
| 1777965153 | 22.22° C | 53% | 1009.3 hPa | - | 0.89 m/s, 84° | - | - |
| 1777964846 | 22.78° C | 54% | 1009.3 hPa | - | 0.45 m/s, 78° | - | - |
| 1777964232 | 22.78° C | 58% | 1009.4 hPa | - | 0.45 m/s, 24° | - | - |
| 1777963925 | 22.22° C | 58% | 1009.4 hPa | - | 0.45 m/s, 3° | - | - |
| 1777963619 | 22.22° C | 60% | 1009.4 hPa | - | 0 m/s | - | - |
| 1777963312 | 21.67° C | 62% | 1009.5 hPa | - | 0.45 m/s, 345° | - | - |
| 1777963005 | 21.11° C | 64% | 1009.5 hPa | - | 0.45 m/s, 19° | - | - |
| 1777962698 | 20.56° C | 65% | 1009.5 hPa | - | 0.45 m/s, 46° | - | - |
| 1777962392 | 20° C | 67% | 1009.4 hPa | - | 0.45 m/s, 83° | - | - |
| 1777962085 | 20° C | 70% | 1009.4 hPa | - | 0.45 m/s, 87° | - | - |
| 1777961778 | 19.44° C | 73% | 1009.5 hPa | - | 0.45 m/s, 87° | - | - |
| 1777961472 | 18.33° C | 75% | 1009.5 hPa | - | 0.45 m/s, 86° | - | - |
| 1777960859 | 17.22° C | 79% | 1009.5 hPa | - | 0 m/s | - | - |
| 1777960246 | 16.67° C | 80% | 1009.7 hPa | - | 0 m/s | - | - |
| 1777959940 | 16.11° C | 82% | 1009.9 hPa | - | 0.45 m/s, 276° | - | - |
| 1777959328 | 15.56° C | 83% | 1009.9 hPa | - | 0 m/s | - | - |
| 1777959021 | 15.56° C | 85% | 1009.8 hPa | - | 0 m/s | - | - |
* Rain since midnight (hover to see other rain measurements)
** Current wind speed in m/s (hover to see current wind gust speed)